sensor_id;sensor_type;location;lat;lon;timestamp;P1;durP1;ratioP1;P2;durP2;ratioP2
40945;SDS011;55635;50.264;11.918;2023-12-14T00:00:01;21.40;;;11.60;;
40945;SDS011;55635;50.264;11.918;2023-12-14T00:02:46;21.50;;;12.18;;
40945;SDS011;55635;50.264;11.918;2023-12-14T00:05:27;23.20;;;12.52;;
40945;SDS011;55635;50.264;11.918;2023-12-14T00:08:08;20.45;;;12.05;;
40945;SDS011;55635;50.264;11.918;2023-12-14T00:10:48;20.20;;;12.02;;
40945;SDS011;55635;50.264;11.918;2023-12-14T00:13:30;24.08;;;13.43;;
40945;SDS011;55635;50.264;11.918;2023-12-14T00:16:11;33.88;;;15.43;;
40945;SDS011;55635;50.264;11.918;2023-12-14T00:18:52;33.83;;;16.92;;
40945;SDS011;55635;50.264;11.918;2023-12-14T00:21:33;29.90;;;14.95;;
40945;SDS011;55635;50.264;11.918;2023-12-14T00:24:14;26.70;;;15.00;;
40945;SDS011;55635;50.264;11.918;2023-12-14T00:26:55;25.30;;;13.40;;
40945;SDS011;55635;50.264;11.918;2023-12-14T00:29:36;22.75;;;13.10;;
40945;SDS011;55635;50.264;11.918;2023-12-14T00:32:17;24.27;;;14.15;;
40945;SDS011;55635;50.264;11.918;2023-12-14T00:34:58;22.45;;;13.38;;
40945;SDS011;55635;50.264;11.918;2023-12-14T00:37:39;22.83;;;11.68;;
40945;SDS011;55635;50.264;11.918;2023-12-14T00:40:20;21.58;;;12.65;;
40945;SDS011;55635;50.264;11.918;2023-12-14T00:43:01;15.85;;;10.88;;
40945;SDS011;55635;50.264;11.918;2023-12-14T00:45:42;14.57;;;9.82;;
40945;SDS011;55635;50.264;11.918;2023-12-14T00:48:23;14.23;;;9.60;;
40945;SDS011;55635;50.264;11.918;2023-12-14T00:51:04;15.32;;;9.82;;
40945;SDS011;55635;50.264;11.918;2023-12-14T00:53:45;15.05;;;9.35;;
40945;SDS011;55635;50.264;11.918;2023-12-14T00:56:26;14.50;;;9.48;;
40945;SDS011;55635;50.264;11.918;2023-12-14T00:59:07;14.27;;;9.32;;
40945;SDS011;55635;50.264;11.918;2023-12-14T01:01:48;14.27;;;9.25;;
40945;SDS011;55635;50.264;11.918;2023-12-14T01:04:29;14.68;;;9.30;;
40945;SDS011;55635;50.264;11.918;2023-12-14T01:07:10;19.35;;;11.52;;
40945;SDS011;55635;50.264;11.918;2023-12-14T01:09:51;19.27;;;11.55;;
40945;SDS011;55635;50.264;11.918;2023-12-14T01:12:32;22.95;;;11.82;;
40945;SDS011;55635;50.264;11.918;2023-12-14T01:15:13;20.25;;;12.35;;
40945;SDS011;55635;50.264;11.918;2023-12-14T01:17:54;21.35;;;11.88;;
40945;SDS011;55635;50.264;11.918;2023-12-14T01:20:35;20.92;;;13.20;;
40945;SDS011;55635;50.264;11.918;2023-12-14T01:23:16;20.85;;;12.95;;
40945;SDS011;55635;50.264;11.918;2023-12-14T01:25:57;17.17;;;10.75;;
40945;SDS011;55635;50.264;11.918;2023-12-14T01:28:38;18.20;;;10.68;;
40945;SDS011;55635;50.264;11.918;2023-12-14T01:31:19;15.65;;;9.40;;
40945;SDS011;55635;50.264;11.918;2023-12-14T01:34:04;16.20;;;9.35;;
40945;SDS011;55635;50.264;11.918;2023-12-14T01:36:45;14.77;;;9.50;;
40945;SDS011;55635;50.264;11.918;2023-12-14T01:39:26;14.55;;;9.57;;
40945;SDS011;55635;50.264;11.918;2023-12-14T01:42:07;14.50;;;8.20;;
40945;SDS011;55635;50.264;11.918;2023-12-14T01:44:48;13.75;;;9.20;;
40945;SDS011;55635;50.264;11.918;2023-12-14T01:47:29;15.40;;;9.52;;
40945;SDS011;55635;50.264;11.918;2023-12-14T01:50:10;13.73;;;8.88;;
40945;SDS011;55635;50.264;11.918;2023-12-14T01:52:51;12.45;;;8.43;;
40945;SDS011;55635;50.264;11.918;2023-12-14T01:55:32;13.77;;;9.65;;
40945;SDS011;55635;50.264;11.918;2023-12-14T01:58:13;13.30;;;8.00;;
40945;SDS011;55635;50.264;11.918;2023-12-14T02:03:51;14.75;;;9.55;;
40945;SDS011;55635;50.264;11.918;2023-12-14T02:06:34;14.40;;;8.20;;
40945;SDS011;55635;50.264;11.918;2023-12-14T02:09:15;13.00;;;8.40;;
40945;SDS011;55635;50.264;11.918;2023-12-14T02:11:56;12.75;;;8.40;;
40945;SDS011;55635;50.264;11.918;2023-12-14T02:14:37;16.77;;;9.13;;
40945;SDS011;55635;50.264;11.918;2023-12-14T02:17:18;12.88;;;8.95;;
40945;SDS011;55635;50.264;11.918;2023-12-14T02:19:59;13.95;;;9.20;;
40945;SDS011;55635;50.264;11.918;2023-12-14T02:22:53;13.95;;;8.43;;
40945;SDS011;55635;50.264;11.918;2023-12-14T02:25:35;14.07;;;8.60;;
40945;SDS011;55635;50.264;11.918;2023-12-14T02:28:16;12.52;;;8.52;;
40945;SDS011;55635;50.264;11.918;2023-12-14T02:30:57;11.15;;;7.32;;
40945;SDS011;55635;50.264;11.918;2023-12-14T02:33:38;10.43;;;7.38;;
40945;SDS011;55635;50.264;11.918;2023-12-14T02:36:19;11.80;;;7.82;;
40945;SDS011;55635;50.264;11.918;2023-12-14T02:39:00;11.15;;;7.43;;
40945;SDS011;55635;50.264;11.918;2023-12-14T02:41:41;14.68;;;8.38;;
40945;SDS011;55635;50.264;11.918;2023-12-14T02:44:22;12.13;;;7.68;;
40945;SDS011;55635;50.264;11.918;2023-12-14T02:47:03;12.50;;;7.80;;
40945;SDS011;55635;50.264;11.918;2023-12-14T02:49:44;13.18;;;8.93;;
40945;SDS011;55635;50.264;11.918;2023-12-14T02:52:25;16.58;;;9.02;;
40945;SDS011;55635;50.264;11.918;2023-12-14T02:55:06;24.52;;;11.63;;
40945;SDS011;55635;50.264;11.918;2023-12-14T02:57:47;14.48;;;8.20;;
40945;SDS011;55635;50.264;11.918;2023-12-14T03:00:28;16.15;;;6.90;;
40945;SDS011;55635;50.264;11.918;2023-12-14T03:03:09;15.90;;;9.25;;
40945;SDS011;55635;50.264;11.918;2023-12-14T03:05:50;16.20;;;8.23;;
40945;SDS011;55635;50.264;11.918;2023-12-14T03:08:31;14.90;;;8.32;;
40945;SDS011;55635;50.264;11.918;2023-12-14T03:11:20;12.63;;;8.30;;
40945;SDS011;55635;50.264;11.918;2023-12-14T03:14:03;10.43;;;7.25;;
40945;SDS011;55635;50.264;11.918;2023-12-14T03:16:44;16.25;;;9.07;;
40945;SDS011;55635;50.264;11.918;2023-12-14T03:19:25;13.57;;;8.07;;
40945;SDS011;55635;50.264;11.918;2023-12-14T03:22:06;11.23;;;7.30;;
40945;SDS011;55635;50.264;11.918;2023-12-14T03:24:47;14.25;;;8.57;;
40945;SDS011;55635;50.264;11.918;2023-12-14T03:27:28;16.33;;;8.30;;
40945;SDS011;55635;50.264;11.918;2023-12-14T03:30:09;12.13;;;7.25;;
40945;SDS011;55635;50.264;11.918;2023-12-14T03:32:50;12.80;;;7.72;;
40945;SDS011;55635;50.264;11.918;2023-12-14T03:35:31;12.60;;;7.63;;
40945;SDS011;55635;50.264;11.918;2023-12-14T03:38:15;11.52;;;8.07;;
40945;SDS011;55635;50.264;11.918;2023-12-14T03:40:56;11.65;;;7.65;;
40945;SDS011;55635;50.264;11.918;2023-12-14T03:43:37;12.65;;;7.93;;
40945;SDS011;55635;50.264;11.918;2023-12-14T03:46:18;12.07;;;8.38;;
40945;SDS011;55635;50.264;11.918;2023-12-14T03:48:59;11.05;;;7.28;;
40945;SDS011;55635;50.264;11.918;2023-12-14T03:51:41;13.45;;;7.80;;
40945;SDS011;55635;50.264;11.918;2023-12-14T03:54:22;12.48;;;8.27;;
40945;SDS011;55635;50.264;11.918;2023-12-14T03:57:03;12.82;;;7.55;;
40945;SDS011;55635;50.264;11.918;2023-12-14T03:59:44;15.15;;;8.40;;
40945;SDS011;55635;50.264;11.918;2023-12-14T04:02:25;19.00;;;8.43;;
40945;SDS011;55635;50.264;11.918;2023-12-14T04:05:06;12.85;;;7.95;;
40945;SDS011;55635;50.264;11.918;2023-12-14T04:07:50;14.07;;;7.25;;
40945;SDS011;55635;50.264;11.918;2023-12-14T04:10:31;13.43;;;8.02;;
40945;SDS011;55635;50.264;11.918;2023-12-14T04:13:12;11.32;;;7.82;;
40945;SDS011;55635;50.264;11.918;2023-12-14T04:15:53;12.90;;;7.63;;
40945;SDS011;55635;50.264;11.918;2023-12-14T04:18:34;13.23;;;7.65;;
40945;SDS011;55635;50.264;11.918;2023-12-14T04:21:15;14.07;;;7.25;;
40945;SDS011;55635;50.264;11.918;2023-12-14T04:23:56;11.25;;;7.25;;
40945;SDS011;55635;50.264;11.918;2023-12-14T04:26:37;10.63;;;7.25;;
40945;SDS011;55635;50.264;11.918;2023-12-14T04:29:19;13.75;;;7.82;;
40945;SDS011;55635;50.264;11.918;2023-12-14T04:31:59;14.88;;;8.52;;
40945;SDS011;55635;50.264;11.918;2023-12-14T04:34:40;15.57;;;8.27;;
40945;SDS011;55635;50.264;11.918;2023-12-14T04:37:21;13.40;;;8.25;;
40945;SDS011;55635;50.264;11.918;2023-12-14T04:40:02;12.70;;;8.15;;
40945;SDS011;55635;50.264;11.918;2023-12-14T04:42:43;17.50;;;8.65;;
40945;SDS011;55635;50.264;11.918;2023-12-14T04:45:24;18.20;;;9.32;;
40945;SDS011;55635;50.264;11.918;2023-12-14T04:48:05;17.15;;;8.38;;
40945;SDS011;55635;50.264;11.918;2023-12-14T04:50:46;16.52;;;9.00;;
40945;SDS011;55635;50.264;11.918;2023-12-14T04:53:30;19.73;;;8.50;;
40945;SDS011;55635;50.264;11.918;2023-12-14T04:56:11;15.23;;;7.85;;
40945;SDS011;55635;50.264;11.918;2023-12-14T04:58:52;15.32;;;8.55;;
40945;SDS011;55635;50.264;11.918;2023-12-14T05:01:33;12.88;;;7.38;;
40945;SDS011;55635;50.264;11.918;2023-12-14T05:04:14;14.27;;;8.30;;
40945;SDS011;55635;50.264;11.918;2023-12-14T05:06:55;13.77;;;7.13;;
40945;SDS011;55635;50.264;11.918;2023-12-14T05:09:36;11.90;;;7.55;;
40945;SDS011;55635;50.264;11.918;2023-12-14T05:12:17;12.30;;;7.50;;
40945;SDS011;55635;50.264;11.918;2023-12-14T05:14:58;14.60;;;7.03;;
40945;SDS011;55635;50.264;11.918;2023-12-14T05:17:39;10.63;;;6.93;;
40945;SDS011;55635;50.264;11.918;2023-12-14T05:20:20;12.77;;;7.13;;
40945;SDS011;55635;50.264;11.918;2023-12-14T05:23:01;12.73;;;7.53;;
40945;SDS011;55635;50.264;11.918;2023-12-14T05:25:43;15.85;;;7.13;;
40945;SDS011;55635;50.264;11.918;2023-12-14T05:28:24;11.63;;;7.07;;
40945;SDS011;55635;50.264;11.918;2023-12-14T05:31:05;10.65;;;6.88;;
40945;SDS011;55635;50.264;11.918;2023-12-14T05:33:46;13.32;;;6.97;;
40945;SDS011;55635;50.264;11.918;2023-12-14T05:36:27;11.70;;;6.75;;
40945;SDS011;55635;50.264;11.918;2023-12-14T05:39:08;9.65;;;5.55;;
40945;SDS011;55635;50.264;11.918;2023-12-14T05:41:49;10.70;;;6.03;;
40945;SDS011;55635;50.264;11.918;2023-12-14T05:44:30;10.75;;;5.22;;
40945;SDS011;55635;50.264;11.918;2023-12-14T05:47:11;9.48;;;5.93;;
40945;SDS011;55635;50.264;11.918;2023-12-14T05:49:52;9.15;;;5.53;;
40945;SDS011;55635;50.264;11.918;2023-12-14T05:52:33;9.48;;;5.50;;
40945;SDS011;55635;50.264;11.918;2023-12-14T05:55:14;12.80;;;5.15;;
40945;SDS011;55635;50.264;11.918;2023-12-14T05:57:55;9.77;;;5.10;;
40945;SDS011;55635;50.264;11.918;2023-12-14T06:00:36;6.97;;;4.47;;
40945;SDS011;55635;50.264;11.918;2023-12-14T06:03:17;9.00;;;4.93;;
40945;SDS011;55635;50.264;11.918;2023-12-14T06:05:58;6.50;;;4.75;;
40945;SDS011;55635;50.264;11.918;2023-12-14T06:08:39;6.28;;;4.38;;
40945;SDS011;55635;50.264;11.918;2023-12-14T06:11:21;7.40;;;4.40;;
40945;SDS011;55635;50.264;11.918;2023-12-14T06:14:02;9.10;;;4.75;;
40945;SDS011;55635;50.264;11.918;2023-12-14T06:16:43;6.28;;;4.28;;
40945;SDS011;55635;50.264;11.918;2023-12-14T06:19:24;6.97;;;4.53;;
40945;SDS011;55635;50.264;11.918;2023-12-14T06:22:05;5.30;;;3.70;;
40945;SDS011;55635;50.264;11.918;2023-12-14T06:24:46;6.88;;;3.58;;
40945;SDS011;55635;50.264;11.918;2023-12-14T06:27:27;4.93;;;3.40;;
40945;SDS011;55635;50.264;11.918;2023-12-14T06:30:08;5.10;;;3.30;;
40945;SDS011;55635;50.264;11.918;2023-12-14T06:32:50;4.65;;;3.10;;
40945;SDS011;55635;50.264;11.918;2023-12-14T06:35:31;4.35;;;3.05;;
40945;SDS011;55635;50.264;11.918;2023-12-14T06:38:12;3.88;;;2.75;;
40945;SDS011;55635;50.264;11.918;2023-12-14T06:40:53;3.47;;;2.85;;
40945;SDS011;55635;50.264;11.918;2023-12-14T06:43:34;4.78;;;3.25;;
40945;SDS011;55635;50.264;11.918;2023-12-14T06:46:15;4.15;;;3.30;;
40945;SDS011;55635;50.264;11.918;2023-12-14T06:48:58;6.05;;;3.17;;
40945;SDS011;55635;50.264;11.918;2023-12-14T06:51:39;3.97;;;2.90;;
40945;SDS011;55635;50.264;11.918;2023-12-14T06:54:20;5.22;;;3.38;;
40945;SDS011;55635;50.264;11.918;2023-12-14T06:57:01;6.35;;;3.53;;
40945;SDS011;55635;50.264;11.918;2023-12-14T06:59:42;5.25;;;3.17;;
40945;SDS011;55635;50.264;11.918;2023-12-14T07:02:23;6.32;;;3.30;;
40945;SDS011;55635;50.264;11.918;2023-12-14T07:05:04;4.05;;;3.10;;
40945;SDS011;55635;50.264;11.918;2023-12-14T07:07:45;5.28;;;2.85;;
40945;SDS011;55635;50.264;11.918;2023-12-14T07:10:26;5.18;;;3.15;;
40945;SDS011;55635;50.264;11.918;2023-12-14T07:13:07;4.90;;;3.30;;
40945;SDS011;55635;50.264;11.918;2023-12-14T07:15:48;4.53;;;3.30;;
40945;SDS011;55635;50.264;11.918;2023-12-14T07:18:29;5.93;;;3.10;;
40945;SDS011;55635;50.264;11.918;2023-12-14T07:21:10;6.65;;;4.00;;
40945;SDS011;55635;50.264;11.918;2023-12-14T07:23:51;3.78;;;2.95;;
40945;SDS011;55635;50.264;11.918;2023-12-14T07:26:32;5.28;;;3.55;;
40945;SDS011;55635;50.264;11.918;2023-12-14T07:29:13;4.53;;;3.88;;
40945;SDS011;55635;50.264;11.918;2023-12-14T07:31:53;4.30;;;3.70;;
40945;SDS011;55635;50.264;11.918;2023-12-14T07:34:34;5.68;;;4.80;;
40945;SDS011;55635;50.264;11.918;2023-12-14T07:37:15;7.05;;;4.82;;
40945;SDS011;55635;50.264;11.918;2023-12-14T07:39:56;8.30;;;5.60;;
40945;SDS011;55635;50.264;11.918;2023-12-14T07:42:38;8.85;;;5.68;;
40945;SDS011;55635;50.264;11.918;2023-12-14T07:45:19;6.72;;;5.18;;
40945;SDS011;55635;50.264;11.918;2023-12-14T07:48:00;9.65;;;6.03;;
40945;SDS011;55635;50.264;11.918;2023-12-14T07:50:41;11.95;;;5.60;;
40945;SDS011;55635;50.264;11.918;2023-12-14T07:53:21;8.10;;;5.43;;
40945;SDS011;55635;50.264;11.918;2023-12-14T07:56:03;7.63;;;5.38;;
40945;SDS011;55635;50.264;11.918;2023-12-14T07:58:44;7.45;;;5.20;;
40945;SDS011;55635;50.264;11.918;2023-12-14T08:01:25;8.93;;;5.28;;
40945;SDS011;55635;50.264;11.918;2023-12-14T08:04:06;8.40;;;5.65;;
40945;SDS011;55635;50.264;11.918;2023-12-14T08:06:47;9.80;;;5.75;;
40945;SDS011;55635;50.264;11.918;2023-12-14T08:09:28;11.00;;;6.63;;
40945;SDS011;55635;50.264;11.918;2023-12-14T08:12:08;10.30;;;6.47;;
40945;SDS011;55635;50.264;11.918;2023-12-14T08:14:50;9.70;;;6.45;;
40945;SDS011;55635;50.264;11.918;2023-12-14T08:17:31;10.65;;;6.55;;
40945;SDS011;55635;50.264;11.918;2023-12-14T08:20:12;11.05;;;7.10;;
40945;SDS011;55635;50.264;11.918;2023-12-14T08:22:53;8.60;;;6.13;;
40945;SDS011;55635;50.264;11.918;2023-12-14T08:25:34;12.05;;;7.07;;
40945;SDS011;55635;50.264;11.918;2023-12-14T08:28:15;11.30;;;6.68;;
40945;SDS011;55635;50.264;11.918;2023-12-14T08:30:56;8.98;;;7.18;;
40945;SDS011;55635;50.264;11.918;2023-12-14T08:33:41;10.60;;;7.85;;
40945;SDS011;55635;50.264;11.918;2023-12-14T08:36:22;10.52;;;7.30;;
40945;SDS011;55635;50.264;11.918;2023-12-14T08:39:03;10.27;;;7.22;;
40945;SDS011;55635;50.264;11.918;2023-12-14T08:41:47;12.95;;;7.07;;
40945;SDS011;55635;50.264;11.918;2023-12-14T08:44:29;8.02;;;6.32;;
40945;SDS011;55635;50.264;11.918;2023-12-14T08:47:09;8.57;;;5.60;;
40945;SDS011;55635;50.264;11.918;2023-12-14T08:49:51;6.97;;;4.88;;
40945;SDS011;55635;50.264;11.918;2023-12-14T08:52:31;7.55;;;5.60;;
40945;SDS011;55635;50.264;11.918;2023-12-14T08:55:13;6.80;;;4.78;;
40945;SDS011;55635;50.264;11.918;2023-12-14T08:57:54;6.25;;;4.60;;
40945;SDS011;55635;50.264;11.918;2023-12-14T09:00:36;5.18;;;4.15;;
40945;SDS011;55635;50.264;11.918;2023-12-14T09:03:18;5.20;;;4.05;;
40945;SDS011;55635;50.264;11.918;2023-12-14T09:05:59;7.00;;;5.05;;
40945;SDS011;55635;50.264;11.918;2023-12-14T09:08:43;6.53;;;4.95;;
40945;SDS011;55635;50.264;11.918;2023-12-14T09:11:25;8.80;;;5.38;;
40945;SDS011;55635;50.264;11.918;2023-12-14T09:14:06;9.82;;;6.60;;
40945;SDS011;55635;50.264;11.918;2023-12-14T09:16:47;12.50;;;6.88;;
40945;SDS011;55635;50.264;11.918;2023-12-14T09:19:29;10.40;;;6.70;;
40945;SDS011;55635;50.264;11.918;2023-12-14T09:22:11;11.30;;;6.57;;
40945;SDS011;55635;50.264;11.918;2023-12-14T09:24:52;11.05;;;6.82;;
40945;SDS011;55635;50.264;11.918;2023-12-14T09:27:33;11.57;;;6.75;;
40945;SDS011;55635;50.264;11.918;2023-12-14T09:30:14;15.63;;;7.60;;
40945;SDS011;55635;50.264;11.918;2023-12-14T09:32:57;15.15;;;7.53;;
40945;SDS011;55635;50.264;11.918;2023-12-14T09:35:38;14.55;;;8.15;;
40945;SDS011;55635;50.264;11.918;2023-12-14T09:38:19;13.73;;;7.22;;
40945;SDS011;55635;50.264;11.918;2023-12-14T09:41:00;12.15;;;7.50;;
40945;SDS011;55635;50.264;11.918;2023-12-14T09:43:41;13.07;;;7.57;;
40945;SDS011;55635;50.264;11.918;2023-12-14T09:46:23;11.82;;;8.05;;
40945;SDS011;55635;50.264;11.918;2023-12-14T09:49:07;14.60;;;7.38;;
40945;SDS011;55635;50.264;11.918;2023-12-14T09:51:49;12.25;;;6.70;;
40945;SDS011;55635;50.264;11.918;2023-12-14T09:54:30;10.73;;;6.50;;
40945;SDS011;55635;50.264;11.918;2023-12-14T09:57:11;12.85;;;7.32;;
40945;SDS011;55635;50.264;11.918;2023-12-14T09:59:53;10.25;;;6.97;;
40945;SDS011;55635;50.264;11.918;2023-12-14T10:02:35;8.45;;;6.40;;
40945;SDS011;55635;50.264;11.918;2023-12-14T10:05:16;12.93;;;6.30;;
40945;SDS011;55635;50.264;11.918;2023-12-14T10:07:57;10.50;;;6.82;;
40945;SDS011;55635;50.264;11.918;2023-12-14T10:10:38;11.85;;;6.03;;
40945;SDS011;55635;50.264;11.918;2023-12-14T10:13:20;13.52;;;7.20;;
40945;SDS011;55635;50.264;11.918;2023-12-14T10:16:31;9.70;;;6.40;;
40945;SDS011;55635;50.264;11.918;2023-12-14T10:19:13;8.52;;;6.30;;
40945;SDS011;55635;50.264;11.918;2023-12-14T10:21:54;12.20;;;6.97;;
40945;SDS011;55635;50.264;11.918;2023-12-14T10:24:36;9.27;;;6.85;;
40945;SDS011;55635;50.264;11.918;2023-12-14T10:27:17;11.13;;;6.80;;
40945;SDS011;55635;50.264;11.918;2023-12-14T10:29:58;9.60;;;6.70;;
40945;SDS011;55635;50.264;11.918;2023-12-14T10:32:39;10.85;;;7.40;;
40945;SDS011;55635;50.264;11.918;2023-12-14T10:35:21;12.25;;;7.22;;
40945;SDS011;55635;50.264;11.918;2023-12-14T10:38:03;10.60;;;6.57;;
40945;SDS011;55635;50.264;11.918;2023-12-14T10:40:45;10.32;;;6.93;;
40945;SDS011;55635;50.264;11.918;2023-12-14T10:43:26;12.05;;;6.72;;
40945;SDS011;55635;50.264;11.918;2023-12-14T10:46:09;13.57;;;7.45;;
40945;SDS011;55635;50.264;11.918;2023-12-14T10:48:51;11.13;;;6.90;;
40945;SDS011;55635;50.264;11.918;2023-12-14T10:51:32;11.75;;;7.13;;
40945;SDS011;55635;50.264;11.918;2023-12-14T10:54:17;10.82;;;6.93;;
40945;SDS011;55635;50.264;11.918;2023-12-14T10:56:59;10.63;;;6.78;;
40945;SDS011;55635;50.264;11.918;2023-12-14T10:59:41;11.15;;;7.15;;
40945;SDS011;55635;50.264;11.918;2023-12-14T11:02:22;10.80;;;6.70;;
40945;SDS011;55635;50.264;11.918;2023-12-14T11:05:03;9.57;;;7.15;;
40945;SDS011;55635;50.264;11.918;2023-12-14T11:07:53;9.85;;;6.88;;
40945;SDS011;55635;50.264;11.918;2023-12-14T11:10:36;11.35;;;6.53;;
40945;SDS011;55635;50.264;11.918;2023-12-14T11:13:32;14.40;;;7.88;;
40945;SDS011;55635;50.264;11.918;2023-12-14T11:16:14;11.70;;;7.80;;
40945;SDS011;55635;50.264;11.918;2023-12-14T11:24:51;8.48;;;5.75;;
40945;SDS011;55635;50.264;11.918;2023-12-14T11:27:34;11.05;;;6.43;;
40945;SDS011;55635;50.264;11.918;2023-12-14T11:30:24;11.10;;;6.15;;
40945;SDS011;55635;50.264;11.918;2023-12-14T11:33:05;8.50;;;5.65;;
40945;SDS011;55635;50.264;11.918;2023-12-14T11:35:46;8.68;;;5.68;;
40945;SDS011;55635;50.264;11.918;2023-12-14T11:38:27;7.93;;;5.88;;
40945;SDS011;55635;50.264;11.918;2023-12-14T11:41:09;8.77;;;6.05;;
40945;SDS011;55635;50.264;11.918;2023-12-14T11:43:51;7.07;;;5.50;;
40945;SDS011;55635;50.264;11.918;2023-12-14T11:46:32;9.73;;;6.10;;
40945;SDS011;55635;50.264;11.918;2023-12-14T11:49:13;6.03;;;4.88;;
40945;SDS011;55635;50.264;11.918;2023-12-14T11:51:54;8.38;;;4.95;;
40945;SDS011;55635;50.264;11.918;2023-12-14T11:54:36;5.20;;;4.50;;
40945;SDS011;55635;50.264;11.918;2023-12-14T11:57:17;5.60;;;4.20;;
40945;SDS011;55635;50.264;11.918;2023-12-14T11:59:59;3.05;;;2.30;;
40945;SDS011;55635;50.264;11.918;2023-12-14T12:02:40;2.00;;;1.63;;
40945;SDS011;55635;50.264;11.918;2023-12-14T12:05:34;1.95;;;1.20;;
40945;SDS011;55635;50.264;11.918;2023-12-14T12:08:19;1.83;;;1.38;;
40945;SDS011;55635;50.264;11.918;2023-12-14T12:11:01;3.00;;;1.92;;
40945;SDS011;55635;50.264;11.918;2023-12-14T12:13:43;1.60;;;1.48;;
40945;SDS011;55635;50.264;11.918;2023-12-14T12:16:23;3.03;;;2.03;;
40945;SDS011;55635;50.264;11.918;2023-12-14T12:19:05;1.90;;;1.80;;
40945;SDS011;55635;50.264;11.918;2023-12-14T12:21:46;3.08;;;1.80;;
40945;SDS011;55635;50.264;11.918;2023-12-14T12:24:27;2.63;;;2.22;;
40945;SDS011;55635;50.264;11.918;2023-12-14T12:27:08;3.08;;;2.28;;
40945;SDS011;55635;50.264;11.918;2023-12-14T12:29:49;2.90;;;2.15;;
40945;SDS011;55635;50.264;11.918;2023-12-14T12:32:33;2.88;;;2.17;;
40945;SDS011;55635;50.264;11.918;2023-12-14T12:35:14;3.30;;;2.70;;
40945;SDS011;55635;50.264;11.918;2023-12-14T12:37:55;3.03;;;2.45;;
40945;SDS011;55635;50.264;11.918;2023-12-14T12:40:36;2.63;;;2.40;;
40945;SDS011;55635;50.264;11.918;2023-12-14T12:43:18;10.45;;;7.15;;
40945;SDS011;55635;50.264;11.918;2023-12-14T12:45:59;3.80;;;2.97;;
40945;SDS011;55635;50.264;11.918;2023-12-14T12:48:41;3.28;;;2.33;;
40945;SDS011;55635;50.264;11.918;2023-12-14T12:51:22;2.30;;;2.10;;
40945;SDS011;55635;50.264;11.918;2023-12-14T12:54:03;3.00;;;2.70;;
40945;SDS011;55635;50.264;11.918;2023-12-14T12:56:44;3.67;;;2.72;;
40945;SDS011;55635;50.264;11.918;2023-12-14T12:59:26;4.35;;;2.67;;
40945;SDS011;55635;50.264;11.918;2023-12-14T13:02:07;3.65;;;2.85;;
40945;SDS011;55635;50.264;11.918;2023-12-14T13:04:48;3.20;;;2.40;;
40945;SDS011;55635;50.264;11.918;2023-12-14T13:07:30;4.60;;;2.78;;
40945;SDS011;55635;50.264;11.918;2023-12-14T13:10:11;4.95;;;2.50;;
40945;SDS011;55635;50.264;11.918;2023-12-14T13:12:53;4.32;;;3.38;;
40945;SDS011;55635;50.264;11.918;2023-12-14T13:15:34;8.65;;;5.90;;
40945;SDS011;55635;50.264;11.918;2023-12-14T13:18:19;5.13;;;4.63;;
40945;SDS011;55635;50.264;11.918;2023-12-14T13:21:00;3.72;;;2.90;;
40945;SDS011;55635;50.264;11.918;2023-12-14T13:23:41;4.13;;;2.90;;
40945;SDS011;55635;50.264;11.918;2023-12-14T13:26:24;2.53;;;2.13;;
40945;SDS011;55635;50.264;11.918;2023-12-14T13:29:04;2.40;;;2.05;;
40945;SDS011;55635;50.264;11.918;2023-12-14T13:31:47;2.65;;;2.05;;
40945;SDS011;55635;50.264;11.918;2023-12-14T13:34:28;11.75;;;8.70;;
40945;SDS011;55635;50.264;11.918;2023-12-14T13:37:09;14.93;;;11.05;;
40945;SDS011;55635;50.264;11.918;2023-12-14T13:39:50;4.60;;;3.83;;
40945;SDS011;55635;50.264;11.918;2023-12-14T13:42:32;2.83;;;2.35;;
40945;SDS011;55635;50.264;11.918;2023-12-14T13:45:13;2.17;;;1.77;;
40945;SDS011;55635;50.264;11.918;2023-12-14T13:47:55;2.13;;;1.42;;
40945;SDS011;55635;50.264;11.918;2023-12-14T13:50:38;2.25;;;1.20;;
40945;SDS011;55635;50.264;11.918;2023-12-14T13:53:21;1.85;;;1.30;;
40945;SDS011;55635;50.264;11.918;2023-12-14T13:56:02;1.67;;;1.25;;
40945;SDS011;55635;50.264;11.918;2023-12-14T13:58:43;2.13;;;1.23;;
40945;SDS011;55635;50.264;11.918;2023-12-14T14:01:24;0.98;;;0.90;;
40945;SDS011;55635;50.264;11.918;2023-12-14T14:04:05;2.78;;;1.17;;
40945;SDS011;55635;50.264;11.918;2023-12-14T14:06:46;1.63;;;1.05;;
40945;SDS011;55635;50.264;11.918;2023-12-14T14:09:27;2.65;;;1.65;;
40945;SDS011;55635;50.264;11.918;2023-12-14T14:12:08;1.48;;;1.38;;
40945;SDS011;55635;50.264;11.918;2023-12-14T14:14:50;2.83;;;1.50;;
40945;SDS011;55635;50.264;11.918;2023-12-14T14:17:30;1.95;;;1.73;;
40945;SDS011;55635;50.264;11.918;2023-12-14T14:20:12;1.70;;;1.08;;
40945;SDS011;55635;50.264;11.918;2023-12-14T14:22:53;2.20;;;1.40;;
40945;SDS011;55635;50.264;11.918;2023-12-14T14:25:34;2.47;;;1.20;;
40945;SDS011;55635;50.264;11.918;2023-12-14T14:28:15;3.58;;;1.60;;
40945;SDS011;55635;50.264;11.918;2023-12-14T14:30:56;1.60;;;1.20;;
40945;SDS011;55635;50.264;11.918;2023-12-14T14:33:38;3.78;;;1.30;;
40945;SDS011;55635;50.264;11.918;2023-12-14T14:36:20;2.00;;;1.80;;
40945;SDS011;55635;50.264;11.918;2023-12-14T14:39:01;4.82;;;3.75;;
40945;SDS011;55635;50.264;11.918;2023-12-14T14:41:44;3.28;;;2.28;;
40945;SDS011;55635;50.264;11.918;2023-12-14T14:44:25;2.75;;;2.55;;
40945;SDS011;55635;50.264;11.918;2023-12-14T14:47:06;1.77;;;1.67;;
40945;SDS011;55635;50.264;11.918;2023-12-14T14:49:47;1.00;;;1.00;;
40945;SDS011;55635;50.264;11.918;2023-12-14T14:52:28;1.42;;;1.33;;
40945;SDS011;55635;50.264;11.918;2023-12-14T14:55:13;1.40;;;1.30;;
40945;SDS011;55635;50.264;11.918;2023-12-14T14:57:54;2.10;;;1.48;;
40945;SDS011;55635;50.264;11.918;2023-12-14T15:00:35;3.08;;;1.58;;
40945;SDS011;55635;50.264;11.918;2023-12-14T15:03:18;1.73;;;1.63;;
40945;SDS011;55635;50.264;11.918;2023-12-14T15:06:01;2.42;;;2.22;;
40945;SDS011;55635;50.264;11.918;2023-12-14T15:08:43;41.45;;;28.20;;
40945;SDS011;55635;50.264;11.918;2023-12-14T15:11:24;4.18;;;3.42;;
40945;SDS011;55635;50.264;11.918;2023-12-14T15:14:05;4.88;;;3.20;;
40945;SDS011;55635;50.264;11.918;2023-12-14T15:16:45;3.85;;;3.45;;
40945;SDS011;55635;50.264;11.918;2023-12-14T15:19:27;4.20;;;3.72;;
40945;SDS011;55635;50.264;11.918;2023-12-14T15:22:08;4.93;;;3.78;;
40945;SDS011;55635;50.264;11.918;2023-12-14T15:24:49;4.60;;;3.63;;
40945;SDS011;55635;50.264;11.918;2023-12-14T15:27:30;5.13;;;4.03;;
40945;SDS011;55635;50.264;11.918;2023-12-14T15:30:13;5.00;;;3.63;;
40945;SDS011;55635;50.264;11.918;2023-12-14T15:32:55;4.00;;;3.70;;
40945;SDS011;55635;50.264;11.918;2023-12-14T15:35:36;4.38;;;3.97;;
40945;SDS011;55635;50.264;11.918;2023-12-14T15:38:17;4.95;;;4.45;;
40945;SDS011;55635;50.264;11.918;2023-12-14T15:40:58;5.13;;;4.63;;
40945;SDS011;55635;50.264;11.918;2023-12-14T15:43:39;4.50;;;4.10;;
40945;SDS011;55635;50.264;11.918;2023-12-14T15:46:20;5.30;;;4.63;;
40945;SDS011;55635;50.264;11.918;2023-12-14T15:49:01;5.72;;;4.88;;
40945;SDS011;55635;50.264;11.918;2023-12-14T15:51:43;5.75;;;4.85;;
40945;SDS011;55635;50.264;11.918;2023-12-14T15:54:24;4.88;;;4.03;;
40945;SDS011;55635;50.264;11.918;2023-12-14T15:57:06;5.28;;;4.68;;